Time;durP1;ratioP1;P1;durP2;ratioP2;P2;SDS_P1;SDS_P2;PMS_P1;PMS_P2;Temp;Humidity;BMP_temperature;BMP_pressure;BME280_temperature;BME280_humidity;BME280_pressure;Samples;Min_cycle;Max_cycle;Signal;HPM_P1;HPM_P2
2022/03/29 00:02:14;;;;;;;3.50;2.20;;;;;;;21.32;27.32;99190.28;5135927;27;20265;-59
2022/03/29 00:04:42;;;;;;;3.45;2.40;;;;;;;21.33;27.53;99192.69;5136485;27;20043;-59
2022/03/29 00:07:08;;;;;;;3.25;2.20;;;;;;;21.32;27.49;99191.09;5136059;27;20129;-60
2022/03/29 00:09:33;;;;;;;4.28;2.30;;;;;;;21.31;27.60;99177.56;5135859;27;20134;-59
2022/03/29 00:11:59;;;;;;;3.47;2.40;;;;;;;21.31;27.47;99172.00;5135954;27;20039;-65
2022/03/29 00:14:25;;;;;;;3.10;2.17;;;;;;;21.30;27.72;99170.41;5136259;27;20039;-65
2022/03/29 00:16:50;;;;;;;3.15;2.15;;;;;;;21.29;27.40;99169.63;5136320;27;20097;-65
2022/03/29 00:19:16;;;;;;;3.00;2.10;;;;;;;21.32;27.48;99156.91;5133985;27;20459;-65
2022/03/29 00:21:41;;;;;;;2.90;2.20;;;;;;;21.31;27.43;99163.66;5133004;28;20039;-65
2022/03/29 00:24:07;;;;;;;3.40;2.35;;;;;;;21.28;27.62;99161.63;5133160;28;20047;-65
2022/03/29 00:26:33;;;;;;;3.40;2.40;;;;;;;21.30;27.50;99165.66;5132786;28;20047;-65
2022/03/29 00:28:58;;;;;;;3.22;2.10;;;;;;;21.25;27.45;99151.25;5132289;28;20096;-65
2022/03/29 00:31:24;;;;;;;3.08;2.20;;;;;;;21.28;27.64;99145.75;5133004;28;20047;-65
2022/03/29 00:33:50;;;;;;;3.20;2.22;;;;;;;21.30;27.49;99142.59;5132991;28;20054;-65
2022/03/29 00:36:16;;;;;;;3.20;2.30;;;;;;;21.29;27.74;99136.22;5114127;28;20057;-65
2022/03/29 00:38:42;;;;;;;2.90;2.05;;;;;;;21.27;27.78;99133.00;5132764;28;20058;-65
2022/03/29 00:41:07;;;;;;;3.17;2.35;;;;;;;21.28;27.45;99128.25;5098495;28;20040;-65
2022/03/29 00:43:33;;;;;;;3.17;2.22;;;;;;;21.26;27.58;99119.47;5132758;28;20130;-65
2022/03/29 00:45:58;;;;;;;3.72;2.40;;;;;;;21.27;27.65;99118.28;5132298;28;20047;-65
2022/03/29 00:48:24;;;;;;;3.13;2.50;;;;;;;21.24;27.60;99111.50;5132608;28;20095;-65
2022/03/29 00:50:51;;;;;;;3.30;2.35;;;;;;;21.25;27.72;99124.22;5132569;28;20045;-65
2022/03/29 00:53:18;;;;;;;2.83;1.90;;;;;;;21.25;27.72;99118.66;5131208;28;20494;-59
2022/03/29 00:55:44;;;;;;;3.72;2.40;;;;;;;21.26;27.49;99100.00;5132549;28;20039;-59
2022/03/29 00:58:12;;;;;;;3.63;2.38;;;;;;;21.23;27.71;99098.78;5108705;28;20638;-59
2022/03/29 01:00:38;;;;;;;2.88;2.17;;;;;;;21.25;27.55;99096.41;5132359;28;20036;-59
2022/03/29 01:03:04;;;;;;;3.25;2.20;;;;;;;21.24;27.86;99103.16;5132291;28;20051;-59
2022/03/29 01:05:30;;;;;;;3.05;1.95;;;;;;;21.23;27.54;99096.00;5131497;28;20446;-66
2022/03/29 01:07:57;;;;;;;3.45;2.50;;;;;;;21.24;27.58;99097.59;5132333;28;20043;-65
2022/03/29 01:10:23;;;;;;;3.63;2.53;;;;;;;21.23;27.95;99096.00;5132292;28;20047;-65
2022/03/29 01:12:49;;;;;;;3.47;2.38;;;;;;;21.23;27.86;99081.31;5132301;28;20063;-65
2022/03/29 01:15:16;;;;;;;3.17;2.28;;;;;;;21.21;27.80;99084.44;5132314;28;20079;-65
2022/03/29 01:17:43;;;;;;;3.35;2.40;;;;;;;21.24;27.69;99088.47;5132147;28;20193;-65
2022/03/29 01:20:13;;;;;;;3.58;2.13;;;;;;;21.22;27.75;99072.16;5131903;28;20047;-65
2022/03/29 01:22:42;;;;;;;3.17;2.22;;;;;;;21.19;28.06;99064.56;5130605;28;20041;-65
2022/03/29 01:25:08;;;;;;;3.30;2.30;;;;;;;21.18;27.84;99049.09;5132081;28;20058;-65
2022/03/29 01:27:36;;;;;;;3.75;2.50;;;;;;;21.19;27.73;99053.44;5131935;28;20043;-65
2022/03/29 01:30:02;;;;;;;3.28;2.25;;;;;;;21.20;27.99;99043.91;5131611;27;20092;-65
2022/03/29 01:32:29;;;;;;;2.78;2.00;;;;;;;21.21;27.80;99051.06;5131196;28;20039;-59
2022/03/29 01:34:56;;;;;;;2.92;2.10;;;;;;;21.19;28.05;99047.09;5131206;28;20122;-59
2022/03/29 01:37:22;;;;;;;3.33;2.30;;;;;;;21.19;27.96;99045.09;5130817;28;20076;-59
2022/03/29 01:39:47;;;;;;;3.13;2.25;;;;;;;21.19;27.86;99036.75;5128652;28;20514;-59
2022/03/29 01:42:13;;;;;;;3.60;2.33;;;;;;;21.20;27.99;99038.34;5131882;28;20063;-59
2022/03/29 01:44:39;;;;;;;3.15;2.40;;;;;;;21.19;28.14;99030.41;5131126;28;20564;-59
2022/03/29 01:47:06;;;;;;;3.25;2.10;;;;;;;21.18;27.82;99032.38;5131178;28;20157;-59
2022/03/29 01:49:32;;;;;;;3.17;2.17;;;;;;;21.18;27.80;99029.63;5111266;28;20044;-59
2022/03/29 01:51:58;;;;;;;3.42;2.25;;;;;;;21.19;27.89;99028.41;5124096;28;20050;-59
2022/03/29 01:54:24;;;;;;;3.20;2.25;;;;;;;21.17;28.29;99020.47;5130920;28;20061;-59
2022/03/29 01:56:49;;;;;;;3.20;2.28;;;;;;;21.18;28.20;99015.69;5131028;28;20039;-59
2022/03/29 01:59:15;;;;;;;3.22;2.25;;;;;;;21.18;28.16;99015.69;5131501;28;20208;-59
2022/03/29 02:01:47;;;;;;;3.70;2.45;;;;;;;21.18;28.08;99012.91;5131353;28;20054;-59
2022/03/29 02:04:13;;;;;;;3.40;2.30;;;;;;;21.24;27.98;99000.25;5130885;28;20507;-59
2022/03/29 02:06:40;;;;;;;2.92;2.17;;;;;;;21.91;27.10;98999.03;5131446;28;20059;-59
2022/03/29 02:09:06;;;;;;;2.85;2.10;;;;;;;22.78;26.31;99001.59;5131532;28;20043;-60
2022/03/29 02:11:33;;;;;;;3.75;2.50;;;;;;;23.61;25.19;98991.97;5131492;28;20045;-59
2022/03/29 02:13:58;;;;;;;3.20;2.30;;;;;;;23.27;25.66;98989.63;5129960;28;20436;-59
2022/03/29 02:16:23;;;;;;;3.03;2.10;;;;;;;22.85;26.01;98996.03;5112052;28;20122;-59
2022/03/29 02:18:49;;;;;;;3.63;2.20;;;;;;;22.46;26.58;98994.03;5131299;28;20035;-65
2022/03/29 02:21:16;;;;;;;3.33;2.33;;;;;;;22.20;26.86;98997.94;5131035;28;20075;-66
2022/03/29 02:23:41;;;;;;;3.13;2.00;;;;;;;21.96;27.14;99001.44;5131019;28;20080;-65
2022/03/29 02:26:07;;;;;;;2.63;2.03;;;;;;;21.83;27.23;98991.84;5130249;28;20051;-65
2022/03/29 02:28:33;;;;;;;3.00;2.17;;;;;;;21.69;27.56;98992.56;5130945;28;20089;-66
2022/03/29 02:30:59;;;;;;;3.40;2.38;;;;;;;21.61;27.49;98990.94;5130351;28;20047;-65
2022/03/29 02:33:24;;;;;;;3.17;2.40;;;;;;;21.53;27.85;98992.09;5130807;28;20051;-65
2022/03/29 02:35:50;;;;;;;2.95;2.15;;;;;;;21.50;27.81;98993.66;5130906;28;20411;-65
2022/03/29 02:38:17;;;;;;;2.85;1.90;;;;;;;21.43;28.06;98980.53;5130817;28;20122;-65
2022/03/29 02:40:44;;;;;;;3.03;2.17;;;;;;;21.42;28.22;98981.69;5129857;28;20062;-65
2022/03/29 02:43:09;;;;;;;3.30;2.30;;;;;;;21.39;27.95;98978.91;5129724;27;20069;-66
2022/03/29 02:45:35;;;;;;;3.30;2.22;;;;;;;21.38;28.17;98985.66;5131000;28;20047;-65
2022/03/29 02:48:00;;;;;;;3.40;2.40;;;;;;;21.35;28.17;98980.88;5130835;28;20575;-65
2022/03/29 02:50:26;;;;;;;2.78;2.10;;;;;;;21.35;28.14;98983.66;5130753;28;20045;-65
2022/03/29 02:52:52;;;;;;;3.92;2.30;;;;;;;21.33;28.30;98983.25;5130789;28;20041;-66
2022/03/29 02:55:19;;;;;;;3.38;2.30;;;;;;;21.32;28.37;98988.00;5130589;28;20100;-65
2022/03/29 02:57:46;;;;;;;3.42;2.30;;;;;;;21.33;28.21;98988.81;5130611;28;20043;-65
2022/03/29 03:00:16;;;;;;;3.30;2.50;;;;;;;21.32;28.41;98990.78;5130734;28;20047;-65
2022/03/29 03:02:43;;;;;;;3.53;2.58;;;;;;;21.33;28.21;98986.81;5130599;28;20118;-65
2022/03/29 03:05:10;;;;;;;2.90;2.13;;;;;;;21.32;28.16;98981.66;5130599;28;20043;-66
2022/03/29 03:07:36;;;;;;;3.17;2.30;;;;;;;21.32;28.29;98979.66;5130391;28;20051;-65
2022/03/29 03:10:02;;;;;;;3.22;2.25;;;;;;;21.29;28.53;98974.88;5130480;28;20693;-65
2022/03/29 03:12:28;;;;;;;3.65;2.30;;;;;;;21.31;28.23;98978.06;5130507;28;20043;-65
2022/03/29 03:14:53;;;;;;;3.10;2.22;;;;;;;21.29;28.32;98986.03;5130455;28;20134;-65
2022/03/29 03:17:19;;;;;;;3.75;2.50;;;;;;;21.31;28.57;98988.41;5129417;28;20039;-65
2022/03/29 03:19:44;;;;;;;3.50;2.30;;;;;;;21.31;28.46;98983.63;5130370;28;20039;-65
2022/03/29 03:22:11;;;;;;;3.67;2.42;;;;;;;21.30;28.31;98979.25;5130431;28;20035;-65
2022/03/29 03:24:36;;;;;;;3.25;2.28;;;;;;;21.31;28.43;98983.63;5130469;28;20059;-65
2022/03/29 03:27:02;;;;;;;3.22;2.38;;;;;;;21.32;28.23;98984.44;5130131;28;20047;-65
2022/03/29 03:29:27;;;;;;;3.13;2.20;;;;;;;21.32;28.42;98979.66;5129642;28;20386;-65
2022/03/29 03:31:53;;;;;;;3.60;2.22;;;;;;;21.32;28.24;98985.22;5129230;28;20051;-65
2022/03/29 03:34:18;;;;;;;2.92;2.10;;;;;;;21.30;28.52;98976.47;5129245;28;20039;-66
2022/03/29 03:36:43;;;;;;;3.00;2.17;;;;;;;21.32;28.39;98984.44;5130134;28;20130;-65
2022/03/29 03:39:09;;;;;;;3.25;2.30;;;;;;;21.32;28.41;98984.44;5127206;28;20419;-65
2022/03/29 03:41:37;;;;;;;3.55;2.53;;;;;;;21.31;28.00;98983.63;5129487;28;20047;-65
2022/03/29 03:44:02;;;;;;;3.38;2.35;;;;;;;21.33;28.38;98989.59;5129967;28;20055;-65
2022/03/29 03:46:28;;;;;;;3.65;2.55;;;;;;;21.33;28.34;98972.13;5129945;28;20415;-65
2022/03/29 03:48:53;;;;;;;3.85;2.50;;;;;;;21.32;28.05;98973.31;5130067;28;20047;-65
2022/03/29 03:51:18;;;;;;;3.28;2.30;;;;;;;21.33;28.25;98972.91;5129873;28;20473;-65
2022/03/29 03:53:44;;;;;;;4.30;2.20;;;;;;;21.32;28.05;98976.88;5128800;27;20122;-65
2022/03/29 03:56:10;;;;;;;3.22;2.33;;;;;;;21.33;28.16;98969.34;5133460;28;20043;-65
2022/03/29 03:58:35;;;;;;;3.25;2.20;;;;;;;21.32;28.23;98962.97;5133465;28;20498;-65
2022/03/29 04:01:00;;;;;;;3.22;2.40;;;;;;;21.32;28.09;98970.53;5133488;28;20043;-65
2022/03/29 04:03:26;;;;;;;3.50;2.72;;;;;;;21.32;28.35;98965.75;5133559;28;20043;-65
2022/03/29 04:05:52;;;;;;;3.78;2.40;;;;;;;21.32;28.17;98962.19;5133346;28;20051;-64
2022/03/29 04:08:18;;;;;;;3.22;2.42;;;;;;;21.31;28.02;98964.16;5133529;28;20043;-65
2022/03/29 04:10:44;;;;;;;3.45;2.38;;;;;;;21.31;28.26;98961.38;5133354;28;20068;-65
2022/03/29 04:13:09;;;;;;;3.50;2.42;;;;;;;21.30;28.20;98947.88;5133314;28;20039;-65
2022/03/29 04:15:35;;;;;;;3.72;2.60;;;;;;;21.33;28.31;98949.84;5133059;28;20465;-65
2022/03/29 04:18:01;;;;;;;3.55;2.63;;;;;;;21.34;28.18;98945.88;5133173;28;20391;-65
2022/03/29 04:20:27;;;;;;;3.20;2.28;;;;;;;21.33;28.18;98947.06;5132386;28;20051;-65
2022/03/29 04:22:53;;;;;;;3.42;2.42;;;;;;;21.33;28.05;98941.50;5132446;28;20044;-59
2022/03/29 04:25:18;;;;;;;3.97;2.70;;;;;;;21.32;28.19;98935.16;5132834;28;20043;-59
2022/03/29 04:27:43;;;;;;;3.03;2.13;;;;;;;21.33;28.16;98935.94;5132143;28;20043;-60
2022/03/29 04:30:10;;;;;;;3.58;2.58;;;;;;;21.32;28.16;98929.59;5133138;28;20035;-59
2022/03/29 04:32:37;;;;;;;3.60;2.55;;;;;;;21.34;28.30;98935.56;5132926;28;20039;-59
2022/03/29 04:35:04;;;;;;;3.78;2.50;;;;;;;21.34;28.26;98929.19;5131503;28;20039;-59
2022/03/29 04:37:30;;;;;;;3.92;2.33;;;;;;;21.33;28.39;98924.81;5132762;28;20418;-59
2022/03/29 04:39:55;;;;;;;3.38;2.58;;;;;;;21.34;28.18;98941.13;5132888;28;20507;-59
2022/03/29 04:42:20;;;;;;;3.90;2.53;;;;;;;21.35;28.03;98939.94;5132097;28;20043;-59
2022/03/29 04:44:46;;;;;;;3.20;2.25;;;;;;;21.34;28.13;98927.22;5132612;28;20122;-60
2022/03/29 04:47:11;;;;;;;3.47;2.50;;;;;;;21.35;28.25;98925.22;5132615;28;20099;-59
2022/03/29 04:49:37;;;;;;;3.42;2.40;;;;;;;21.34;28.05;98930.00;5132026;28;20031;-59
2022/03/29 04:52:03;;;;;;;3.63;2.55;;;;;;;21.35;28.06;98928.00;5132079;28;20547;-59
2022/03/29 04:54:28;;;;;;;3.60;2.53;;;;;;;21.36;28.41;98922.06;5132537;28;20118;-59
2022/03/29 04:56:54;;;;;;;3.28;2.35;;;;;;;21.36;28.31;98930.41;5132523;28;20039;-59
2022/03/29 04:59:20;;;;;;;3.33;2.33;;;;;;;21.37;28.11;98931.22;5132320;28;20039;-59
2022/03/29 05:01:45;;;;;;;3.50;2.70;;;;;;;21.37;28.45;98932.00;5132529;28;20075;-59
2022/03/29 05:04:10;;;;;;;3.33;2.40;;;;;;;21.40;28.15;98928.44;5132435;28;20043;-59
2022/03/29 05:06:36;;;;;;;3.63;2.60;;;;;;;21.37;28.18;98925.66;5131798;27;20072;-59
2022/03/29 05:09:02;;;;;;;4.47;2.97;;;;;;;21.41;28.04;98932.00;5132262;28;20163;-59
2022/03/29 05:11:27;;;;;;;3.40;2.50;;;;;;;21.40;28.20;98939.56;5132138;28;20047;-59
2022/03/29 05:13:53;;;;;;;3.42;2.33;;;;;;;21.43;28.12;98937.97;5131725;28;20032;-59
2022/03/29 05:16:18;;;;;;;3.67;2.53;;;;;;;21.45;28.18;98943.16;5131893;28;20043;-60
2022/03/29 05:18:44;;;;;;;3.17;2.20;;;;;;;21.45;28.06;98929.25;5132296;28;20043;-59
2022/03/29 05:21:10;;;;;;;4.20;2.72;;;;;;;21.46;28.13;98939.19;5132203;28;20079;-59
2022/03/29 05:23:35;;;;;;;3.50;2.40;;;;;;;21.47;28.34;98932.44;5132062;28;20035;-59
2022/03/29 05:26:01;;;;;;;3.72;2.60;;;;;;;21.51;28.48;98930.47;5132025;28;20055;-59
2022/03/29 05:28:26;;;;;;;3.60;2.50;;;;;;;21.52;28.27;98929.28;5132386;28;20533;-59
2022/03/29 05:30:52;;;;;;;4.13;2.78;;;;;;;21.54;28.17;98936.06;5132188;28;20130;-59
2022/03/29 05:33:18;;;;;;;68.13;5.60;;;;;;;21.53;28.19;98936.44;5132101;28;20440;-60
2022/03/29 05:35:43;;;;;;;39.42;4.55;;;;;;;21.52;28.27;98934.84;5132356;28;20342;-59
2022/03/29 05:38:10;;;;;;;29.17;4.10;;;;;;;21.52;28.46;98937.63;5131834;28;20047;-59
2022/03/29 05:40:35;;;;;;;29.77;4.82;;;;;;;21.51;28.32;98936.06;5131794;28;20509;-59
2022/03/29 05:43:01;;;;;;;34.75;4.25;;;;;;;21.50;28.14;98942.78;5131966;28;20118;-59
2022/03/29 05:45:29;;;;;;;21.20;4.45;;;;;;;21.51;28.43;98936.84;5131621;28;20073;-59
2022/03/29 05:50:39;;;;;;;16.00;3.30;;;;;;;21.48;28.44;98925.69;5131707;28;20070;-59
2022/03/29 05:53:04;;;;;;;24.13;3.65;;;;;;;21.49;28.42;98936.41;5131709;28;20050;-59
2022/03/29 05:55:30;;;;;;;21.73;3.45;;;;;;;21.50;28.31;98940.00;5131869;28;20398;-59
2022/03/29 05:57:56;;;;;;;17.30;3.60;;;;;;;21.50;28.49;98940.78;5131644;28;20126;-59
2022/03/29 06:00:23;;;;;;;18.63;3.20;;;;;;;21.47;28.28;98938.81;5131912;28;20039;-59
2022/03/29 06:02:49;;;;;;;10.63;3.60;;;;;;;21.48;28.49;98936.81;5131428;28;20047;-59
2022/03/29 06:05:14;;;;;;;16.83;3.25;;;;;;;21.50;28.32;98934.44;5131391;28;20050;-59
2022/03/29 06:07:40;;;;;;;14.98;3.20;;;;;;;21.51;28.27;98930.47;5131048;28;20047;-60
2022/03/29 06:10:06;;;;;;;8.75;3.00;;;;;;;21.50;28.45;98940.78;5131304;28;20518;-59
2022/03/29 06:12:33;;;;;;;10.50;3.30;;;;;;;21.48;28.42;98925.69;5131389;28;20506;-59
2022/03/29 06:15:01;;;;;;;11.80;3.10;;;;;;;21.47;28.68;98932.44;5124739;28;20075;-59
2022/03/29 06:17:27;;;;;;;7.70;2.70;;;;;;;21.50;28.67;98940.00;5123948;27;20046;-59
2022/03/29 06:19:54;;;;;;;12.13;2.70;;;;;;;21.50;28.70;98934.44;5093568;28;20040;-60
2022/03/29 06:22:20;;;;;;;9.00;3.00;;;;;;;21.51;28.66;98936.06;5119790;28;20042;-59
2022/03/29 06:24:46;;;;;;;12.65;2.70;;;;;;;21.51;28.88;98930.47;5118697;28;20035;-65
2022/03/29 06:27:11;;;;;;;7.30;2.78;;;;;;;21.51;28.70;98938.84;5126172;27;20467;-65
2022/03/29 06:29:37;;;;;;;7.00;2.70;;;;;;;21.51;28.79;98922.94;5128459;28;20124;-65
2022/03/29 06:32:03;;;;;;;8.90;3.03;;;;;;;21.52;28.57;98932.06;5130006;28;21131;-65
2022/03/29 06:34:29;;;;;;;6.63;3.00;;;;;;;21.53;28.88;98934.47;5125565;28;20043;-65
2022/03/29 06:36:55;;;;;;;9.30;2.63;;;;;;;21.53;28.88;98933.66;5127493;28;20130;-64
2022/03/29 06:39:21;;;;;;;6.10;2.72;;;;;;;21.55;28.88;98920.16;5117380;28;20043;-64
2022/03/29 06:41:46;;;;;;;6.38;3.10;;;;;;;21.54;29.22;98926.91;5114506;28;20042;-65
2022/03/29 06:44:13;;;;;;;6.60;2.78;;;;;;;21.54;28.86;98927.69;5081091;28;20515;-66
2022/03/29 06:46:39;;;;;;;3.97;2.60;;;;;;;21.54;29.05;98926.91;5113716;28;20053;-65
2022/03/29 06:49:06;;;;;;;5.50;2.90;;;;;;;21.48;29.38;98917.34;5119379;28;20411;-65
2022/03/29 06:51:33;;;;;;;7.35;2.70;;;;;;;21.50;29.60;98923.31;5123303;28;20552;-65
2022/03/29 06:54:00;;;;;;;5.30;2.58;;;;;;;21.50;29.68;98923.31;5119276;28;20047;-63
2022/03/29 06:56:26;;;;;;;7.43;3.05;;;;;;;21.52;29.97;98918.97;5116671;28;20035;-60
2022/03/29 06:58:52;;;;;;;6.28;3.17;;;;;;;21.54;29.86;98910.22;5117927;27;20096;-60
2022/03/29 07:01:18;;;;;;;4.40;2.92;;;;;;;21.55;29.96;98915.38;5114937;28;20445;-61
2022/03/29 07:03:43;;;;;;;8.95;3.03;;;;;;;21.54;29.84;98915.78;5119135;28;20031;-60
2022/03/29 07:06:08;;;;;;;5.50;3.20;;;;;;;21.52;29.97;98913.38;5120612;28;20069;-60
2022/03/29 07:08:34;;;;;;;4.35;2.90;;;;;;;21.47;29.94;98896.28;5116381;28;20096;-60
2022/03/29 07:11:16;;;;;;;4.05;3.05;;;;;;;21.51;29.83;98897.09;5112873;27;20043;-60
2022/03/29 07:13:42;;;;;;;4.80;3.05;;;;;;;21.51;29.85;98905.44;5119177;27;20043;-60
2022/03/29 07:16:09;;;;;;;11.85;3.00;;;;;;;21.53;30.01;98900.28;5106660;27;20043;-59
2022/03/29 07:18:35;;;;;;;6.88;2.85;;;;;;;21.53;29.55;98894.72;5087855;27;20334;-60
2022/03/29 07:21:01;;;;;;;6.72;3.08;;;;;;;21.53;29.68;98886.34;5086234;27;20152;-59
2022/03/29 07:23:27;;;;;;;4.90;3.10;;;;;;;21.55;29.72;98895.91;5085764;27;20347;-59
2022/03/29 07:25:53;;;;;;;5.70;3.30;;;;;;;21.56;29.60;98902.25;5075890;27;20572;-59
2022/03/29 07:28:20;;;;;;;8.50;3.20;;;;;;;21.55;29.43;98889.53;5085390;27;20510;-60
2022/03/29 07:30:46;;;;;;;4.28;2.78;;;;;;;21.52;29.61;98891.13;5087118;28;20943;-60
2022/03/29 07:33:11;;;;;;;8.65;3.33;;;;;;;21.53;29.54;98887.16;5090747;28;20147;-60
2022/03/29 07:35:37;;;;;;;4.50;2.83;;;;;;;21.53;29.42;98889.94;5092507;27;20050;-60
2022/03/29 07:38:07;;;;;;;6.20;2.70;;;;;;;21.53;29.53;98884.38;5087740;28;20795;-57
2022/03/29 07:40:34;;;;;;;4.78;3.20;;;;;;;21.53;29.65;98883.56;5089526;28;20840;-58
2022/03/29 07:43:00;;;;;;;5.75;2.88;;;;;;;21.51;29.56;98880.41;5090869;28;20055;-59
2022/03/29 07:45:25;;;;;;;7.47;3.03;;;;;;;21.50;29.60;98896.28;5086837;27;20059;-60
2022/03/29 07:47:55;;;;;;;4.22;3.13;;;;;;;21.48;29.85;98881.97;5087322;27;20264;-59
2022/03/29 07:50:22;;;;;;;4.88;2.92;;;;;;;21.48;29.81;98890.31;5079822;27;20089;-59
2022/03/29 07:52:47;;;;;;;4.03;2.90;;;;;;;21.46;29.63;98872.41;5086793;27;20039;-59
2022/03/29 07:55:13;;;;;;;5.50;2.83;;;;;;;21.47;29.77;98879.56;5086425;27;20051;-59
2022/03/29 07:57:39;;;;;;;11.80;3.30;;;;;;;21.48;29.82;98886.72;5085811;27;20043;-60
2022/03/29 08:02:52;;;;;;;4.30;2.80;;;;;;;21.45;29.96;98876.41;5083066;28;20058;-60
2022/03/29 08:05:18;;;;;;;5.70;2.90;;;;;;;21.44;29.81;98864.47;5087305;27;20043;-60
2022/03/29 08:07:44;;;;;;;6.68;2.80;;;;;;;21.46;29.69;98872.41;5086817;27;20043;-59
2022/03/29 08:10:10;;;;;;;3.83;2.40;;;;;;;21.47;29.64;98868.44;5086566;27;20059;-59
2022/03/29 08:12:35;;;;;;;4.20;2.80;;;;;;;21.50;29.93;98873.22;5085769;27;20047;-60
2022/03/29 08:15:01;;;;;;;4.63;2.72;;;;;;;21.52;29.69;98877.22;5084422;27;20077;-60
2022/03/29 08:17:26;;;;;;;5.25;2.45;;;;;;;21.53;29.97;98864.88;5079048;27;20047;-59
2022/03/29 08:19:52;;;;;;;4.75;2.80;;;;;;;21.52;29.63;98868.88;5073006;27;20075;-60
2022/03/29 08:22:18;;;;;;;6.43;3.53;;;;;;;21.55;29.53;98867.28;5067825;27;20139;-61
2022/03/29 08:24:43;;;;;;;9.23;5.38;;;;;;;21.47;29.60;98860.09;5075596;27;20036;-62
2022/03/29 08:27:09;;;;;;;9.35;5.28;;;;;;;21.48;29.84;98856.91;5075663;27;21074;-62
2022/03/29 08:29:34;;;;;;;14.73;6.45;;;;;;;21.54;29.70;98851.78;5079043;27;20165;-60
2022/03/29 08:32:00;;;;;;;12.50;6.18;;;;;;;21.56;30.03;98844.63;5062372;28;21532;-61
2022/03/29 08:34:25;;;;;;;9.55;5.05;;;;;;;21.59;29.92;98845.84;5073564;27;20510;-60
2022/03/29 08:36:52;;;;;;;8.48;5.45;;;;;;;21.62;30.01;98847.81;5077731;27;20094;-62
2022/03/29 08:39:18;;;;;;;8.38;5.22;;;;;;;21.62;30.17;98842.25;5078302;27;21363;-66
2022/03/29 08:42:00;;;;;;;10.18;4.70;;;;;;;21.67;30.55;98847.44;5038086;27;20048;-58
2022/03/29 08:44:26;;;;;;;7.18;4.28;;;;;;;21.71;30.18;98848.22;5072207;27;20146;-73
2022/03/29 08:46:52;;;;;;;9.75;4.60;;;;;;;21.70;30.36;98839.09;5070256;27;20716;-64
2022/03/29 08:49:19;;;;;;;8.85;4.43;;;;;;;21.75;30.82;98839.91;5066763;27;20291;-58
2022/03/29 08:51:45;;;;;;;7.95;4.13;;;;;;;21.68;30.65;98849.03;5072974;28;20075;-59
2022/03/29 08:54:12;;;;;;;8.88;4.18;;;;;;;21.65;31.05;98842.28;5060450;27;20051;-63
2022/03/29 08:56:39;;;;;;;9.15;4.22;;;;;;;21.66;30.92;98831.94;5078038;27;20120;-64
2022/03/29 08:59:05;;;;;;;10.98;4.22;;;;;;;22.03;30.77;98833.56;5076562;27;20056;-62
2022/03/29 09:01:31;;;;;;;5.63;3.85;;;;;;;22.75;29.53;98830.34;5089842;27;20051;-60
2022/03/29 09:04:06;;;;;;;7.10;3.63;;;;;;;22.52;29.84;98822.44;5089570;27;20045;-66
2022/03/29 09:06:32;;;;;;;4.65;3.60;;;;;;;22.30;30.08;98815.28;5089442;27;20060;-65
2022/03/29 09:08:58;;;;;;;5.45;3.47;;;;;;;22.14;30.12;98815.69;5085325;27;20057;-65
2022/03/29 09:11:23;;;;;;;4.88;3.45;;;;;;;22.16;30.38;98818.88;5084931;27;20044;-65
2022/03/29 09:14:09;;;;;;;5.85;3.15;;;;;;;22.91;29.14;98817.97;5085193;27;20051;-64
2022/03/29 09:16:38;;;;;;;8.95;3.20;;;;;;;23.41;28.45;98812.19;5087443;27;20813;-64
2022/03/29 09:19:04;;;;;;;6.57;3.10;;;;;;;23.84;27.91;98804.34;5088852;27;20044;-63
2022/03/29 09:21:41;;;;;;;5.80;3.05;;;;;;;24.08;27.50;98800.59;5090115;27;20187;-63
2022/03/29 09:24:08;;;;;;;5.00;2.80;;;;;;;24.33;27.14;98796.81;5088261;27;20078;-63
2022/03/29 09:26:37;;;;;;;6.68;3.05;;;;;;;24.46;27.03;98792.28;5080218;27;20056;-62
2022/03/29 09:29:03;;;;;;;5.15;3.25;;;;;;;24.58;26.76;98788.97;5087523;28;20137;-66
2022/03/29 09:31:29;;;;;;;4.47;3.10;;;;;;;24.64;26.60;98783.69;5091344;27;20043;-67
2022/03/29 09:34:16;;;;;;;6.28;2.70;;;;;;;24.76;26.63;98779.56;5094327;28;20396;-65
2022/03/29 09:36:44;;;;;;;6.53;3.30;;;;;;;24.86;26.53;98773.88;5091374;27;20058;-63
2022/03/29 09:39:38;;;;;;;4.43;3.10;;;;;;;24.90;26.24;98782.22;5082065;28;20927;-64
2022/03/29 09:42:12;;;;;;;4.07;2.63;;;;;;;24.97;25.86;98766.13;5074769;28;20047;-65
2022/03/29 09:44:45;;;;;;;4.95;3.05;;;;;;;25.04;25.87;98751.28;5073428;28;20047;-64
2022/03/29 09:47:13;;;;;;;3.97;2.58;;;;;;;25.08;25.68;98757.63;5070364;28;20760;-67
2022/03/29 09:50:01;;;;;;;4.82;2.95;;;;;;;25.07;25.86;98749.66;5069828;28;20158;-63
2022/03/29 09:52:31;;;;;;;3.70;2.75;;;;;;;25.05;25.88;98757.69;5069059;28;20067;-63
2022/03/29 09:55:13;;;;;;;4.63;2.60;;;;;;;25.02;25.67;98753.69;5063521;28;20051;-63
2022/03/29 09:57:47;;;;;;;3.95;2.80;;;;;;;25.09;25.62;98742.44;5059240;28;20127;-64
2022/03/29 10:00:16;;;;;;;10.88;6.55;;;;;;;24.92;25.85;98732.22;5053814;28;20221;-68
2022/03/29 10:02:44;;;;;;;20.70;11.40;;;;;;;24.90;26.08;98724.25;5066078;28;20043;-64
2022/03/29 10:05:11;;;;;;;14.32;11.45;;;;;;;25.00;25.96;98716.91;5063068;28;21308;-70
2022/03/29 10:07:42;;;;;;;12.70;8.00;;;;;;;25.04;25.95;98712.13;5062757;28;20051;-66
2022/03/29 10:10:10;;;;;;;8.32;6.22;;;;;;;25.02;26.18;98696.94;5067242;28;20043;-65
2022/03/29 10:12:36;;;;;;;7.40;5.22;;;;;;;25.08;25.70;98714.88;5068949;28;20836;-66
2022/03/29 10:15:03;;;;;;;10.18;5.63;;;;;;;25.10;25.82;98702.03;5061850;28;20046;-64
2022/03/29 10:17:28;;;;;;;12.18;4.88;;;;;;;25.09;25.81;98700.47;5061911;28;20040;-67
2022/03/29 10:19:58;;;;;;;7.60;5.05;;;;;;;25.16;25.66;98694.75;5069786;28;20133;-62
2022/03/29 10:22:24;;;;;;;6.47;4.22;;;;;;;25.21;25.41;98687.88;5068351;28;20596;-65
2022/03/29 10:24:49;;;;;;;7.22;4.68;;;;;;;25.10;25.63;98681.66;5067662;28;20051;-64
2022/03/29 10:27:17;;;;;;;6.85;3.90;;;;;;;25.15;25.53;98673.59;5058294;28;20134;-66
2022/03/29 10:29:43;;;;;;;7.43;4.25;;;;;;;25.18;25.71;98678.31;5079129;28;20043;-61
2022/03/29 10:32:10;;;;;;;7.85;4.20;;;;;;;25.19;25.47;98668.72;5083630;28;20080;-67
2022/03/29 10:34:44;;;;;;;7.95;3.75;;;;;;;25.25;25.25;98671.84;5086446;28;20091;-63
2022/03/29 10:37:16;;;;;;;5.97;4.18;;;;;;;25.21;25.38;98662.69;5044795;28;20977;-62
2022/03/29 10:39:54;;;;;;;8.77;4.18;;;;;;;25.20;25.42;98656.31;5089012;28;20048;-65
2022/03/29 10:42:24;;;;;;;7.72;3.63;;;;;;;25.28;25.36;98645.78;5092536;28;20408;-62
2022/03/29 10:45:17;;;;;;;5.80;3.85;;;;;;;25.30;25.35;98642.59;5093687;28;20048;-66
2022/03/29 10:47:46;;;;;;;8.23;4.30;;;;;;;25.35;25.01;98648.47;5086355;28;20063;-64
2022/03/29 10:50:14;;;;;;;5.55;4.05;;;;;;;25.36;24.79;98638.88;5093287;28;20047;-63
2022/03/29 10:52:49;;;;;;;5.53;3.97;;;;;;;25.41;24.88;98634.78;5095679;28;20085;-62
2022/03/29 10:55:25;;;;;;;7.80;3.47;;;;;;;25.41;25.19;98634.78;5090715;28;20059;-62
2022/03/29 10:58:14;;;;;;;5.18;3.95;;;;;;;25.42;25.07;98625.16;5092645;28;20039;-65
2022/03/29 11:00:44;;;;;;;6.35;3.83;;;;;;;25.41;24.65;98621.56;5078604;28;20044;-63
2022/03/29 11:03:14;;;;;;;5.50;3.42;;;;;;;25.37;24.75;98620.88;5091332;28;20044;-62
2022/03/29 11:06:11;;;;;;;5.18;3.60;;;;;;;25.32;24.97;98612.94;5098153;28;20092;-64
2022/03/29 11:08:40;;;;;;;6.38;4.00;;;;;;;25.27;24.71;98602.22;5093089;28;20094;-63
2022/03/29 11:11:07;;;;;;;4.55;3.47;;;;;;;25.19;25.06;98597.94;5093659;28;20109;-62
2022/03/29 11:13:38;;;;;;;5.97;2.95;;;;;;;25.12;24.99;98595.28;5094395;28;20089;-62
2022/03/29 11:16:25;;;;;;;4.57;3.33;;;;;;;24.96;25.22;98593.09;5092143;28;20055;-63
2022/03/29 11:18:51;;;;;;;5.68;3.33;;;;;;;24.88;25.01;98586.03;5094067;28;20047;-64
2022/03/29 11:21:36;;;;;;;4.97;3.20;;;;;;;24.67;25.56;98584.34;5086608;28;20059;-63
2022/03/29 11:24:04;;;;;;;4.72;3.00;;;;;;;24.46;25.63;98582.63;5084533;28;20071;-64
2022/03/29 11:26:30;;;;;;;4.85;3.13;;;;;;;24.31;25.80;98570.81;5086159;28;20056;-62
2022/03/29 11:28:58;;;;;;;6.57;3.95;;;;;;;24.30;25.83;98569.22;5089445;28;20040;-66
2022/03/29 11:31:31;;;;;;;5.35;3.45;;;;;;;24.26;25.89;98557.28;5085318;28;20052;-61
2022/03/29 11:33:57;;;;;;;6.80;3.85;;;;;;;24.24;25.72;98537.34;5084568;28;20504;-64
2022/03/29 11:36:22;;;;;;;4.78;3.47;;;;;;;24.21;25.79;98540.19;5088092;28;20130;-64
2022/03/29 11:38:48;;;;;;;5.15;3.40;;;;;;;24.19;25.74;98537.81;5089505;28;20408;-65